sensor_id;sensor_type;location;lat;lon;timestamp;pressure;altitude;pressure_sealevel;temperature;humidity
28448;BME280;15675;52.870;-1.416;2023-06-05T00:01:36;102137.94;;;13.97;96.23
28448;BME280;15675;52.870;-1.416;2023-06-05T00:04:03;102137.91;;;13.92;95.12
28448;BME280;15675;52.870;-1.416;2023-06-05T00:06:29;102141.25;;;13.85;95.46
28448;BME280;15675;52.870;-1.416;2023-06-05T00:08:54;102134.56;;;14.07;95.64
28448;BME280;15675;52.870;-1.416;2023-06-05T00:11:20;102142.31;;;13.98;94.50
28448;BME280;15675;52.870;-1.416;2023-06-05T00:13:45;102145.59;;;13.23;97.02
28448;BME280;15675;52.870;-1.416;2023-06-05T00:16:11;102144.25;;;13.47;98.80
28448;BME280;15675;52.870;-1.416;2023-06-05T00:18:37;102142.53;;;12.94;100.00
28448;BME280;15675;52.870;-1.416;2023-06-05T00:21:02;102142.75;;;13.09;100.00
28448;BME280;15675;52.870;-1.416;2023-06-05T00:23:29;102138.72;;;13.28;100.00
28448;BME280;15675;52.870;-1.416;2023-06-05T00:25:54;102131.94;;;13.37;100.00
28448;BME280;15675;52.870;-1.416;2023-06-05T00:28:20;102137.34;;;13.52;100.00
28448;BME280;15675;52.870;-1.416;2023-06-05T00:30:46;102127.59;;;13.39;99.66
28448;BME280;15675;52.870;-1.416;2023-06-05T00:33:11;102137.50;;;13.63;98.37
28448;BME280;15675;52.870;-1.416;2023-06-05T00:35:37;102130.97;;;13.96;97.96
28448;BME280;15675;52.870;-1.416;2023-06-05T00:38:03;102125.88;;;14.07;96.11
28448;BME280;15675;52.870;-1.416;2023-06-05T00:40:29;102132.59;;;13.88;95.59
28448;BME280;15675;52.870;-1.416;2023-06-05T00:42:54;102137.16;;;14.06;94.83
28448;BME280;15675;52.870;-1.416;2023-06-05T00:45:20;102126.88;;;13.49;95.85
28448;BME280;15675;52.870;-1.416;2023-06-05T00:47:45;102134.13;;;13.72;97.78
28448;BME280;15675;52.870;-1.416;2023-06-05T00:50:13;102134.44;;;13.96;97.04
28448;BME280;15675;52.870;-1.416;2023-06-05T00:52:41;102127.59;;;14.08;95.52
28448;BME280;15675;52.870;-1.416;2023-06-05T00:55:07;102121.50;;;14.04;95.23
28448;BME280;15675;52.870;-1.416;2023-06-05T00:57:33;102118.84;;;14.00;94.66
28448;BME280;15675;52.870;-1.416;2023-06-05T01:00:01;102122.69;;;13.62;94.46
28448;BME280;15675;52.870;-1.416;2023-06-05T01:02:27;102128.09;;;13.76;95.63
28448;BME280;15675;52.870;-1.416;2023-06-05T01:04:54;102118.97;;;13.41;97.76
28448;BME280;15675;52.870;-1.416;2023-06-05T01:07:22;102119.75;;;13.37;98.17
28448;BME280;15675;52.870;-1.416;2023-06-05T01:09:47;102117.22;;;13.42;99.02
28448;BME280;15675;52.870;-1.416;2023-06-05T01:12:34;102126.03;;;13.52;98.76
28448;BME280;15675;52.870;-1.416;2023-06-05T01:15:02;102111.84;;;13.31;98.39
28448;BME280;15675;52.870;-1.416;2023-06-05T01:17:30;102118.84;;;12.80;100.00
28448;BME280;15675;52.870;-1.416;2023-06-05T01:19:57;102126.06;;;12.97;100.00
28448;BME280;15675;52.870;-1.416;2023-06-05T01:22:25;102120.25;;;12.61;100.00
28448;BME280;15675;52.870;-1.416;2023-06-05T01:24:51;102113.81;;;12.91;100.00
28448;BME280;15675;52.870;-1.416;2023-06-05T01:32:35;102105.84;;;12.82;100.00
28448;BME280;15675;52.870;-1.416;2023-06-05T01:35:08;102102.25;;;12.73;100.00
28448;BME280;15675;52.870;-1.416;2023-06-05T01:37:37;102108.28;;;12.72;100.00
28448;BME280;15675;52.870;-1.416;2023-06-05T01:40:14;102100.28;;;12.60;100.00
28448;BME280;15675;52.870;-1.416;2023-06-05T01:42:41;102106.63;;;12.76;100.00
28448;BME280;15675;52.870;-1.416;2023-06-05T01:45:11;102111.47;;;12.53;100.00
28448;BME280;15675;52.870;-1.416;2023-06-05T01:47:39;102108.00;;;13.07;100.00
28448;BME280;15675;52.870;-1.416;2023-06-05T01:50:06;102106.63;;;13.31;100.00
28448;BME280;15675;52.870;-1.416;2023-06-05T01:52:36;102110.34;;;13.49;99.92
28448;BME280;15675;52.870;-1.416;2023-06-05T01:55:06;102101.72;;;13.51;98.65
28448;BME280;15675;52.870;-1.416;2023-06-05T01:57:32;102106.94;;;13.53;98.50
28448;BME280;15675;52.870;-1.416;2023-06-05T01:59:59;102100.78;;;13.48;98.01
28448;BME280;15675;52.870;-1.416;2023-06-05T02:02:39;102102.38;;;13.38;97.61
28448;BME280;15675;52.870;-1.416;2023-06-05T02:05:09;102098.06;;;13.38;98.56
28448;BME280;15675;52.870;-1.416;2023-06-05T02:07:37;102096.56;;;13.57;97.84
28448;BME280;15675;52.870;-1.416;2023-06-05T02:10:05;102094.38;;;13.27;98.57
28448;BME280;15675;52.870;-1.416;2023-06-05T02:12:31;102095.66;;;12.95;99.81
28448;BME280;15675;52.870;-1.416;2023-06-05T02:14:59;102094.88;;;13.01;100.00
28448;BME280;15675;52.870;-1.416;2023-06-05T02:17:24;102091.50;;;13.07;100.00
28448;BME280;15675;52.870;-1.416;2023-06-05T02:19:50;102095.25;;;12.72;100.00
28448;BME280;15675;52.870;-1.416;2023-06-05T02:22:16;102101.84;;;12.50;100.00
28448;BME280;15675;52.870;-1.416;2023-06-05T02:24:42;102095.75;;;12.50;100.00
28448;BME280;15675;52.870;-1.416;2023-06-05T02:27:08;102105.31;;;12.51;100.00
28448;BME280;15675;52.870;-1.416;2023-06-05T02:29:36;102095.09;;;12.62;100.00
28448;BME280;15675;52.870;-1.416;2023-06-05T02:32:03;102093.28;;;12.57;100.00
28448;BME280;15675;52.870;-1.416;2023-06-05T02:34:29;102098.63;;;12.65;100.00
28448;BME280;15675;52.870;-1.416;2023-06-05T02:36:54;102102.91;;;12.60;100.00
28448;BME280;15675;52.870;-1.416;2023-06-05T02:39:21;102095.59;;;12.40;100.00
28448;BME280;15675;52.870;-1.416;2023-06-05T02:41:46;102096.94;;;12.67;100.00
28448;BME280;15675;52.870;-1.416;2023-06-05T02:44:12;102092.44;;;12.57;100.00
28448;BME280;15675;52.870;-1.416;2023-06-05T02:46:37;102091.91;;;12.29;100.00
28448;BME280;15675;52.870;-1.416;2023-06-05T02:49:03;102099.03;;;12.38;100.00
28448;BME280;15675;52.870;-1.416;2023-06-05T02:51:28;102090.19;;;12.30;100.00
28448;BME280;15675;52.870;-1.416;2023-06-05T02:53:54;102102.44;;;12.35;100.00
28448;BME280;15675;52.870;-1.416;2023-06-05T02:56:19;102100.63;;;12.31;100.00
28448;BME280;15675;52.870;-1.416;2023-06-05T02:58:47;102095.91;;;12.08;100.00
28448;BME280;15675;52.870;-1.416;2023-06-05T03:01:12;102093.94;;;11.98;100.00
28448;BME280;15675;52.870;-1.416;2023-06-05T03:03:38;102095.84;;;12.07;100.00
28448;BME280;15675;52.870;-1.416;2023-06-05T03:06:04;102098.66;;;12.18;100.00
28448;BME280;15675;52.870;-1.416;2023-06-05T03:08:31;102086.44;;;12.14;100.00
28448;BME280;15675;52.870;-1.416;2023-06-05T03:10:58;102080.66;;;12.30;100.00
28448;BME280;15675;52.870;-1.416;2023-06-05T03:13:24;102077.84;;;12.19;100.00
28448;BME280;15675;52.870;-1.416;2023-06-05T03:15:49;102079.66;;;12.22;100.00
28448;BME280;15675;52.870;-1.416;2023-06-05T03:18:21;102080.19;;;12.51;100.00
28448;BME280;15675;52.870;-1.416;2023-06-05T03:20:47;102074.91;;;12.50;100.00
28448;BME280;15675;52.870;-1.416;2023-06-05T03:23:15;102083.25;;;12.29;100.00
28448;BME280;15675;52.870;-1.416;2023-06-05T03:25:41;102086.38;;;12.11;100.00
28448;BME280;15675;52.870;-1.416;2023-06-05T03:28:07;102083.50;;;11.97;100.00
28448;BME280;15675;52.870;-1.416;2023-06-05T03:30:33;102086.84;;;11.92;100.00
28448;BME280;15675;52.870;-1.416;2023-06-05T03:32:59;102089.75;;;12.06;100.00
28448;BME280;15675;52.870;-1.416;2023-06-05T03:35:25;102088.69;;;11.97;100.00
28448;BME280;15675;52.870;-1.416;2023-06-05T03:37:51;102093.44;;;11.75;100.00
28448;BME280;15675;52.870;-1.416;2023-06-05T03:40:17;102082.34;;;11.84;100.00
28448;BME280;15675;52.870;-1.416;2023-06-05T03:42:42;102085.22;;;11.95;100.00
28448;BME280;15675;52.870;-1.416;2023-06-05T03:45:08;102083.25;;;11.84;100.00
28448;BME280;15675;52.870;-1.416;2023-06-05T03:47:34;102085.84;;;11.84;100.00
28448;BME280;15675;52.870;-1.416;2023-06-05T03:49:59;102084.50;;;12.03;100.00
28448;BME280;15675;52.870;-1.416;2023-06-05T03:52:26;102087.84;;;12.43;100.00
28448;BME280;15675;52.870;-1.416;2023-06-05T03:54:51;102086.00;;;12.38;100.00
28448;BME280;15675;52.870;-1.416;2023-06-05T03:57:22;102088.38;;;12.25;100.00
28448;BME280;15675;52.870;-1.416;2023-06-05T03:59:47;102090.34;;;12.37;100.00
28448;BME280;15675;52.870;-1.416;2023-06-05T04:02:14;102082.00;;;12.57;100.00
28448;BME280;15675;52.870;-1.416;2023-06-05T04:04:39;102090.41;;;12.42;100.00
28448;BME280;15675;52.870;-1.416;2023-06-05T04:07:05;102081.47;;;12.78;100.00
28448;BME280;15675;52.870;-1.416;2023-06-05T04:09:31;102085.22;;;12.94;100.00
28448;BME280;15675;52.870;-1.416;2023-06-05T04:11:57;102086.00;;;12.38;100.00
28448;BME280;15675;52.870;-1.416;2023-06-05T04:14:23;102084.97;;;12.30;100.00
28448;BME280;15675;52.870;-1.416;2023-06-05T04:16:49;102081.47;;;12.26;100.00
28448;BME280;15675;52.870;-1.416;2023-06-05T04:19:14;102087.59;;;12.31;100.00
28448;BME280;15675;52.870;-1.416;2023-06-05T04:21:40;102086.81;;;12.35;100.00
28448;BME280;15675;52.870;-1.416;2023-06-05T04:24:07;102083.41;;;12.38;100.00
28448;BME280;15675;52.870;-1.416;2023-06-05T04:26:39;102087.56;;;12.28;100.00
28448;BME280;15675;52.870;-1.416;2023-06-05T04:29:06;102082.06;;;12.13;100.00
28448;BME280;15675;52.870;-1.416;2023-06-05T04:31:40;102079.38;;;12.08;100.00
28448;BME280;15675;52.870;-1.416;2023-06-05T04:34:06;102079.78;;;12.30;100.00
28448;BME280;15675;52.870;-1.416;2023-06-05T04:36:33;102077.31;;;12.36;100.00
28448;BME280;15675;52.870;-1.416;2023-06-05T04:39:00;102079.91;;;11.91;100.00
28448;BME280;15675;52.870;-1.416;2023-06-05T04:41:32;102073.66;;;12.26;100.00
28448;BME280;15675;52.870;-1.416;2023-06-05T04:43:58;102081.22;;;12.14;100.00
28448;BME280;15675;52.870;-1.416;2023-06-05T04:46:25;102083.41;;;12.39;100.00
28448;BME280;15675;52.870;-1.416;2023-06-05T04:48:52;102084.13;;;12.31;100.00
28448;BME280;15675;52.870;-1.416;2023-06-05T04:51:21;102084.03;;;12.24;100.00
28448;BME280;15675;52.870;-1.416;2023-06-05T04:53:47;102079.59;;;12.19;100.00
28448;BME280;15675;52.870;-1.416;2023-06-05T04:56:16;102084.44;;;12.00;100.00
28448;BME280;15675;52.870;-1.416;2023-06-05T04:58:42;102084.94;;;12.26;100.00
28448;BME280;15675;52.870;-1.416;2023-06-05T05:01:07;102080.13;;;12.50;100.00
28448;BME280;15675;52.870;-1.416;2023-06-05T05:03:33;102085.06;;;12.33;100.00
28448;BME280;15675;52.870;-1.416;2023-06-05T05:05:59;102082.69;;;12.47;99.72
28448;BME280;15675;52.870;-1.416;2023-06-05T05:08:25;102083.09;;;12.21;100.00
28448;BME280;15675;52.870;-1.416;2023-06-05T05:10:53;102081.03;;;12.52;100.00
28448;BME280;15675;52.870;-1.416;2023-06-05T05:13:18;102076.72;;;12.54;98.88
28448;BME280;15675;52.870;-1.416;2023-06-05T05:15:44;102079.59;;;12.71;97.95
28448;BME280;15675;52.870;-1.416;2023-06-05T05:18:10;102087.25;;;12.13;97.53
28448;BME280;15675;52.870;-1.416;2023-06-05T05:20:35;102076.84;;;12.13;98.13
28448;BME280;15675;52.870;-1.416;2023-06-05T05:23:01;102075.75;;;12.00;98.10
28448;BME280;15675;52.870;-1.416;2023-06-05T05:25:27;102073.38;;;12.11;97.44
28448;BME280;15675;52.870;-1.416;2023-06-05T05:27:53;102082.59;;;12.40;97.05
28448;BME280;15675;52.870;-1.416;2023-06-05T05:30:18;102070.28;;;12.32;97.06
28448;BME280;15675;52.870;-1.416;2023-06-05T05:32:44;102082.59;;;12.42;94.96
28448;BME280;15675;52.870;-1.416;2023-06-05T05:35:10;102069.56;;;12.40;93.08
28448;BME280;15675;52.870;-1.416;2023-06-05T05:37:35;102068.19;;;12.12;91.71
28448;BME280;15675;52.870;-1.416;2023-06-05T05:40:01;102065.69;;;12.67;92.02
28448;BME280;15675;52.870;-1.416;2023-06-05T05:42:29;102062.88;;;12.56;90.79
28448;BME280;15675;52.870;-1.416;2023-06-05T05:44:54;102067.06;;;12.48;90.37
28448;BME280;15675;52.870;-1.416;2023-06-05T05:47:20;102073.78;;;12.34;90.48
28448;BME280;15675;52.870;-1.416;2023-06-05T05:49:45;102075.31;;;12.24;91.55
28448;BME280;15675;52.870;-1.416;2023-06-05T05:52:11;102069.50;;;12.36;91.36
28448;BME280;15675;52.870;-1.416;2023-06-05T05:54:36;102055.72;;;12.43;90.74
28448;BME280;15675;52.870;-1.416;2023-06-05T05:57:02;102070.75;;;12.59;92.81
28448;BME280;15675;52.870;-1.416;2023-06-05T05:59:30;102055.00;;;12.52;89.95
28448;BME280;15675;52.870;-1.416;2023-06-05T06:01:55;102059.47;;;12.59;90.30
28448;BME280;15675;52.870;-1.416;2023-06-05T06:04:23;102069.84;;;12.56;89.00
28448;BME280;15675;52.870;-1.416;2023-06-05T06:06:49;102069.22;;;12.74;88.95
28448;BME280;15675;52.870;-1.416;2023-06-05T06:09:17;102065.75;;;12.72;88.44
28448;BME280;15675;52.870;-1.416;2023-06-05T06:11:43;102078.41;;;12.50;88.53
28448;BME280;15675;52.870;-1.416;2023-06-05T06:14:09;102082.09;;;12.62;89.10
28448;BME280;15675;52.870;-1.416;2023-06-05T06:16:39;102075.69;;;12.98;89.12
28448;BME280;15675;52.870;-1.416;2023-06-05T06:19:05;102076.72;;;13.09;88.47
28448;BME280;15675;52.870;-1.416;2023-06-05T06:21:31;102083.19;;;12.76;89.26
28448;BME280;15675;52.870;-1.416;2023-06-05T06:23:57;102067.00;;;12.43;89.72
28448;BME280;15675;52.870;-1.416;2023-06-05T06:26:22;102066.06;;;12.92;89.84
28448;BME280;15675;52.870;-1.416;2023-06-05T06:28:48;102066.06;;;12.92;88.21
28448;BME280;15675;52.870;-1.416;2023-06-05T06:31:14;102068.38;;;12.75;90.08
28448;BME280;15675;52.870;-1.416;2023-06-05T06:33:40;102075.38;;;12.77;90.92
28448;BME280;15675;52.870;-1.416;2023-06-05T06:36:06;102072.31;;;13.05;91.81
28448;BME280;15675;52.870;-1.416;2023-06-05T06:38:31;102077.44;;;12.97;91.87
28448;BME280;15675;52.870;-1.416;2023-06-05T06:40:58;102074.88;;;13.00;92.42
28448;BME280;15675;52.870;-1.416;2023-06-05T06:43:24;102074.41;;;12.71;91.29
28448;BME280;15675;52.870;-1.416;2023-06-05T06:45:52;102081.44;;;12.76;91.47
28448;BME280;15675;52.870;-1.416;2023-06-05T06:48:18;102082.78;;;13.06;92.43
28448;BME280;15675;52.870;-1.416;2023-06-05T06:50:44;102087.94;;;13.03;91.57
28448;BME280;15675;52.870;-1.416;2023-06-05T06:53:10;102088.78;;;13.02;91.28
28448;BME280;15675;52.870;-1.416;2023-06-05T06:55:35;102090.03;;;12.71;91.13
28448;BME280;15675;52.870;-1.416;2023-06-05T06:58:02;102096.38;;;12.36;92.55
28448;BME280;15675;52.870;-1.416;2023-06-05T07:00:27;102094.97;;;12.55;93.81
28448;BME280;15675;52.870;-1.416;2023-06-05T07:02:53;102102.78;;;12.55;94.53
28448;BME280;15675;52.870;-1.416;2023-06-05T07:05:19;102097.50;;;13.03;94.10
28448;BME280;15675;52.870;-1.416;2023-06-05T07:07:45;102100.25;;;12.57;93.12
28448;BME280;15675;52.870;-1.416;2023-06-05T07:10:11;102096.97;;;12.69;92.99
28448;BME280;15675;52.870;-1.416;2023-06-05T07:12:37;102094.47;;;12.76;93.41
28448;BME280;15675;52.870;-1.416;2023-06-05T07:15:03;102093.59;;;12.76;93.36
28448;BME280;15675;52.870;-1.416;2023-06-05T07:17:28;102095.38;;;12.77;93.27
28448;BME280;15675;52.870;-1.416;2023-06-05T07:19:56;102100.56;;;12.75;94.52
28448;BME280;15675;52.870;-1.416;2023-06-05T07:22:22;102108.78;;;13.02;94.24
28448;BME280;15675;52.870;-1.416;2023-06-05T07:24:50;102103.28;;;12.85;93.69
28448;BME280;15675;52.870;-1.416;2023-06-05T07:27:16;102110.41;;;12.97;93.44
28448;BME280;15675;52.870;-1.416;2023-06-05T07:29:42;102114.94;;;13.07;92.94
28448;BME280;15675;52.870;-1.416;2023-06-05T07:32:08;102113.16;;;13.03;93.27
28448;BME280;15675;52.870;-1.416;2023-06-05T07:34:33;102106.84;;;12.88;94.60
28448;BME280;15675;52.870;-1.416;2023-06-05T07:37:02;102102.75;;;13.06;93.06
28448;BME280;15675;52.870;-1.416;2023-06-05T07:39:28;102104.16;;;13.40;92.82
28448;BME280;15675;52.870;-1.416;2023-06-05T07:41:53;102097.38;;;12.97;91.54
28448;BME280;15675;52.870;-1.416;2023-06-05T07:44:20;102105.94;;;12.88;91.14
28448;BME280;15675;52.870;-1.416;2023-06-05T07:46:49;102105.50;;;13.17;91.46
28448;BME280;15675;52.870;-1.416;2023-06-05T07:49:15;102105.38;;;13.06;91.47
28448;BME280;15675;52.870;-1.416;2023-06-05T07:51:41;102111.72;;;13.25;92.24
28448;BME280;15675;52.870;-1.416;2023-06-05T07:54:11;102100.34;;;13.18;91.10
28448;BME280;15675;52.870;-1.416;2023-06-05T07:56:37;102105.94;;;13.43;90.59
28448;BME280;15675;52.870;-1.416;2023-06-05T07:59:04;102109.25;;;13.33;91.24
28448;BME280;15675;52.870;-1.416;2023-06-05T08:01:30;102104.38;;;12.98;91.15
28448;BME280;15675;52.870;-1.416;2023-06-05T08:03:57;102103.66;;;13.09;91.13
28448;BME280;15675;52.870;-1.416;2023-06-05T08:06:24;102111.25;;;13.52;93.02
28448;BME280;15675;52.870;-1.416;2023-06-05T08:08:50;102107.50;;;13.33;92.40
28448;BME280;15675;52.870;-1.416;2023-06-05T08:11:16;102113.47;;;13.24;91.46
28448;BME280;15675;52.870;-1.416;2023-06-05T08:13:42;102110.44;;;13.56;90.03
28448;BME280;15675;52.870;-1.416;2023-06-05T08:16:08;102105.03;;;13.42;90.06
28448;BME280;15675;52.870;-1.416;2023-06-05T08:18:33;102109.31;;;13.36;88.70
28448;BME280;15675;52.870;-1.416;2023-06-05T08:20:59;102112.91;;;13.44;87.34
28448;BME280;15675;52.870;-1.416;2023-06-05T08:23:24;102110.03;;;13.27;88.81
28448;BME280;15675;52.870;-1.416;2023-06-05T08:25:51;102110.22;;;13.41;90.61
28448;BME280;15675;52.870;-1.416;2023-06-05T08:28:17;102118.13;;;13.44;89.47
28448;BME280;15675;52.870;-1.416;2023-06-05T08:30:42;102113.03;;;13.53;88.28
28448;BME280;15675;52.870;-1.416;2023-06-05T08:33:09;102113.06;;;13.56;88.69
28448;BME280;15675;52.870;-1.416;2023-06-05T08:35:35;102112.81;;;13.39;88.84
28448;BME280;15675;52.870;-1.416;2023-06-05T08:38:02;102113.63;;;13.35;89.86
28448;BME280;15675;52.870;-1.416;2023-06-05T08:40:28;102111.94;;;13.37;89.39
28448;BME280;15675;52.870;-1.416;2023-06-05T08:42:55;102118.50;;;13.73;89.19
28448;BME280;15675;52.870;-1.416;2023-06-05T08:45:21;102112.44;;;13.76;87.41
28448;BME280;15675;52.870;-1.416;2023-06-05T08:47:49;102108.00;;;13.69;86.39
28448;BME280;15675;52.870;-1.416;2023-06-05T08:50:16;102113.88;;;13.52;86.85
28448;BME280;15675;52.870;-1.416;2023-06-05T08:52:42;102105.44;;;13.72;87.41
28448;BME280;15675;52.870;-1.416;2023-06-05T08:55:09;102102.03;;;13.79;88.39
28448;BME280;15675;52.870;-1.416;2023-06-05T08:57:38;102097.66;;;13.76;88.52
28448;BME280;15675;52.870;-1.416;2023-06-05T09:00:06;102106.16;;;13.58;87.59
28448;BME280;15675;52.870;-1.416;2023-06-05T09:02:41;102097.72;;;13.81;87.66
28448;BME280;15675;52.870;-1.416;2023-06-05T09:05:15;102102.84;;;13.73;88.08
28448;BME280;15675;52.870;-1.416;2023-06-05T09:07:41;102103.78;;;13.78;88.83
28448;BME280;15675;52.870;-1.416;2023-06-05T09:10:21;102096.13;;;13.92;86.78
28448;BME280;15675;52.870;-1.416;2023-06-05T09:12:57;102098.63;;;13.85;85.90
28448;BME280;15675;52.870;-1.416;2023-06-05T09:15:25;102093.03;;;14.29;87.15
28448;BME280;15675;52.870;-1.416;2023-06-05T09:18:11;102092.72;;;14.00;87.18
28448;BME280;15675;52.870;-1.416;2023-06-05T09:20:44;102106.63;;;13.98;85.90
28448;BME280;15675;52.870;-1.416;2023-06-05T09:23:25;102107.00;;;14.34;87.32
28448;BME280;15675;52.870;-1.416;2023-06-05T09:25:53;102100.66;;;14.09;84.74
28448;BME280;15675;52.870;-1.416;2023-06-05T09:28:19;102098.50;;;14.55;82.80
28448;BME280;15675;52.870;-1.416;2023-06-05T09:33:22;102093.75;;;14.12;84.64
28448;BME280;15675;52.870;-1.416;2023-06-05T09:36:01;102096.38;;;14.15;86.88
28448;BME280;15675;52.870;-1.416;2023-06-05T09:38:27;102105.19;;;14.27;86.47
28448;BME280;15675;52.870;-1.416;2023-06-05T09:41:03;102096.09;;;14.77;84.49
28448;BME280;15675;52.870;-1.416;2023-06-05T09:43:29;102095.72;;;14.37;82.22
28448;BME280;15675;52.870;-1.416;2023-06-05T09:45:55;102093.41;;;14.71;82.91
28448;BME280;15675;52.870;-1.416;2023-06-05T09:48:20;102092.41;;;14.56;81.34
28448;BME280;15675;52.870;-1.416;2023-06-05T09:50:46;102101.81;;;14.37;80.49
28448;BME280;15675;52.870;-1.416;2023-06-05T09:53:14;102098.91;;;15.06;82.16
28448;BME280;15675;52.870;-1.416;2023-06-05T09:55:41;102096.47;;;15.28;78.76
28448;BME280;15675;52.870;-1.416;2023-06-05T09:58:07;102102.56;;;15.27;80.97
28448;BME280;15675;52.870;-1.416;2023-06-05T10:00:40;102101.38;;;14.86;78.21
28448;BME280;15675;52.870;-1.416;2023-06-05T10:03:14;102102.28;;;14.88;77.70
28448;BME280;15675;52.870;-1.416;2023-06-05T10:05:43;102092.81;;;15.04;76.75
28448;BME280;15675;52.870;-1.416;2023-06-05T10:08:12;102097.25;;;15.16;76.66
28448;BME280;15675;52.870;-1.416;2023-06-05T10:10:38;102097.06;;;14.90;77.72
28448;BME280;15675;52.870;-1.416;2023-06-05T10:13:04;102100.41;;;14.72;77.86
28448;BME280;15675;52.870;-1.416;2023-06-05T10:15:31;102099.72;;;14.93;77.51
28448;BME280;15675;52.870;-1.416;2023-06-05T10:17:57;102089.47;;;15.28;73.90
28448;BME280;15675;52.870;-1.416;2023-06-05T10:20:23;102090.34;;;15.26;75.05
28448;BME280;15675;52.870;-1.416;2023-06-05T10:22:49;102096.50;;;15.35;76.00
28448;BME280;15675;52.870;-1.416;2023-06-05T10:25:17;102091.28;;;15.43;70.55
28448;BME280;15675;52.870;-1.416;2023-06-05T10:27:54;102092.66;;;14.82;70.98
28448;BME280;15675;52.870;-1.416;2023-06-05T10:36:18;102100.03;;;15.42;71.76
28448;BME280;15675;52.870;-1.416;2023-06-05T10:38:50;102097.41;;;15.39;72.01
28448;BME280;15675;52.870;-1.416;2023-06-05T10:41:19;102098.97;;;15.11;72.67
28448;BME280;15675;52.870;-1.416;2023-06-05T10:43:49;102105.22;;;15.38;72.88
28448;BME280;15675;52.870;-1.416;2023-06-05T10:51:34;102092.19;;;15.42;71.42
28448;BME280;15675;52.870;-1.416;2023-06-05T10:54:07;102089.72;;;15.78;69.86
28448;BME280;15675;52.870;-1.416;2023-06-05T10:59:17;102087.25;;;16.18;69.50
28448;BME280;15675;52.870;-1.416;2023-06-05T11:01:43;102084.66;;;16.35;70.46
28448;BME280;15675;52.870;-1.416;2023-06-05T11:04:08;102081.97;;;16.05;70.13
28448;BME280;15675;52.870;-1.416;2023-06-05T11:06:34;102086.13;;;15.59;68.22
28448;BME280;15675;52.870;-1.416;2023-06-05T11:09:13;102086.09;;;15.46;69.98
28448;BME280;15675;52.870;-1.416;2023-06-05T11:12:05;102097.63;;;15.82;71.28
28448;BME280;15675;52.870;-1.416;2023-06-05T11:14:44;102103.59;;;15.58;70.81
28448;BME280;15675;52.870;-1.416;2023-06-05T11:17:27;102093.03;;;15.43;73.38
28448;BME280;15675;52.870;-1.416;2023-06-05T11:19:53;102086.97;;;15.45;71.34
28448;BME280;15675;52.870;-1.416;2023-06-05T11:22:19;102085.41;;;15.83;71.38
28448;BME280;15675;52.870;-1.416;2023-06-05T11:24:45;102083.72;;;16.00;72.36
28448;BME280;15675;52.870;-1.416;2023-06-05T11:27:43;102088.09;;;16.08;71.32
28448;BME280;15675;52.870;-1.416;2023-06-05T11:30:22;102092.44;;;16.10;68.96
28448;BME280;15675;52.870;-1.416;2023-06-05T11:32:49;102081.06;;;15.96;68.40
28448;BME280;15675;52.870;-1.416;2023-06-05T11:35:21;102079.34;;;16.04;67.61
28448;BME280;15675;52.870;-1.416;2023-06-05T11:37:46;102070.59;;;15.99;68.06
28448;BME280;15675;52.870;-1.416;2023-06-05T11:40:23;102083.69;;;15.94;71.36
28448;BME280;15675;52.870;-1.416;2023-06-05T11:42:49;102074.16;;;16.22;69.55
28448;BME280;15675;52.870;-1.416;2023-06-05T11:45:15;102077.66;;;16.74;69.14
28448;BME280;15675;52.870;-1.416;2023-06-05T11:47:40;102078.53;;;16.45;69.10
28448;BME280;15675;52.870;-1.416;2023-06-05T11:50:13;102081.94;;;15.90;69.40
28448;BME280;15675;52.870;-1.416;2023-06-05T11:52:42;102077.59;;;16.06;71.15
28448;BME280;15675;52.870;-1.416;2023-06-05T11:55:18;102077.53;;;15.83;69.80
28448;BME280;15675;52.870;-1.416;2023-06-05T11:57:48;102061.72;;;15.55;70.41
28448;BME280;15675;52.870;-1.416;2023-06-05T12:00:23;102077.50;;;15.75;69.92
28448;BME280;15675;52.870;-1.416;2023-06-05T12:02:48;102072.41;;;16.59;69.44
28448;BME280;15675;52.870;-1.416;2023-06-05T12:05:14;102070.69;;;16.48;68.16
28448;BME280;15675;52.870;-1.416;2023-06-05T12:07:40;102067.19;;;16.59;69.71
28448;BME280;15675;52.870;-1.416;2023-06-05T12:10:07;102061.06;;;16.77;67.40
28448;BME280;15675;52.870;-1.416;2023-06-05T12:12:34;102059.31;;;17.08;67.62
28448;BME280;15675;52.870;-1.416;2023-06-05T12:15:19;102050.53;;;16.09;65.98
28448;BME280;15675;52.870;-1.416;2023-06-05T12:17:52;102056.69;;;16.72;69.38
28448;BME280;15675;52.870;-1.416;2023-06-05T12:20:19;102059.34;;;16.91;67.63
28448;BME280;15675;52.870;-1.416;2023-06-05T12:22:45;102059.31;;;16.86;67.18
28448;BME280;15675;52.870;-1.416;2023-06-05T12:27:43;102062.81;;;16.30;67.87
28448;BME280;15675;52.870;-1.416;2023-06-05T12:30:09;102063.69;;;16.36;68.40
28448;BME280;15675;52.870;-1.416;2023-06-05T12:32:35;102064.59;;;16.62;70.14
28448;BME280;15675;52.870;-1.416;2023-06-05T12:35:00;102060.22;;;16.42;67.72
28448;BME280;15675;52.870;-1.416;2023-06-05T12:37:28;102069.81;;;16.57;68.27
28448;BME280;15675;52.870;-1.416;2023-06-05T12:39:56;102064.56;;;16.42;68.72
28448;BME280;15675;52.870;-1.416;2023-06-05T12:42:21;102081.16;;;16.33;68.61
28448;BME280;15675;52.870;-1.416;2023-06-05T12:44:47;102068.03;;;16.14;69.02
28448;BME280;15675;52.870;-1.416;2023-06-05T12:47:13;102079.34;;;16.09;70.22
28448;BME280;15675;52.870;-1.416;2023-06-05T12:49:38;102075.91;;;16.33;70.88
28448;BME280;15675;52.870;-1.416;2023-06-05T12:52:06;102071.56;;;16.41;72.13
28448;BME280;15675;52.870;-1.416;2023-06-05T12:54:32;102074.19;;;16.50;70.03
28448;BME280;15675;52.870;-1.416;2023-06-05T12:56:58;102073.25;;;16.11;69.09
28448;BME280;15675;52.870;-1.416;2023-06-05T12:59:23;102070.59;;;15.86;69.67
28448;BME280;15675;52.870;-1.416;2023-06-05T13:01:49;102077.53;;;15.87;70.82
28448;BME280;15675;52.870;-1.416;2023-06-05T13:04:15;102073.22;;;15.97;69.38